sensor_id;sensor_type;location;lat;lon;timestamp;P1;durP1;ratioP1;P2;durP2;ratioP2
19985;SDS011;10154;52.474;10.768;2023-09-19T00:01:45;6.78;;;1.10;;
19985;SDS011;10154;52.474;10.768;2023-09-19T00:04:14;0.95;;;0.70;;
19985;SDS011;10154;52.474;10.768;2023-09-19T00:06:40;1.80;;;0.52;;
19985;SDS011;10154;52.474;10.768;2023-09-19T00:09:05;3.15;;;0.80;;
19985;SDS011;10154;52.474;10.768;2023-09-19T00:11:35;1.42;;;0.50;;
19985;SDS011;10154;52.474;10.768;2023-09-19T00:14:01;1.30;;;0.80;;
19985;SDS011;10154;52.474;10.768;2023-09-19T00:16:26;1.30;;;0.63;;
19985;SDS011;10154;52.474;10.768;2023-09-19T00:18:52;0.75;;;0.50;;
19985;SDS011;10154;52.474;10.768;2023-09-19T00:21:17;1.08;;;0.80;;
19985;SDS011;10154;52.474;10.768;2023-09-19T00:23:45;2.35;;;0.55;;
19985;SDS011;10154;52.474;10.768;2023-09-19T00:26:12;2.58;;;0.80;;
19985;SDS011;10154;52.474;10.768;2023-09-19T00:28:37;3.50;;;0.80;;
19985;SDS011;10154;52.474;10.768;2023-09-19T00:31:03;3.45;;;0.70;;
19985;SDS011;10154;52.474;10.768;2023-09-19T00:33:30;2.37;;;0.70;;
19985;SDS011;10154;52.474;10.768;2023-09-19T00:35:56;2.87;;;0.80;;
19985;SDS011;10154;52.474;10.768;2023-09-19T00:38:22;4.18;;;1.02;;
19985;SDS011;10154;52.474;10.768;2023-09-19T00:40:52;2.10;;;0.93;;
19985;SDS011;10154;52.474;10.768;2023-09-19T00:43:18;2.67;;;0.80;;
19985;SDS011;10154;52.474;10.768;2023-09-19T00:45:44;1.52;;;0.70;;
19985;SDS011;10154;52.474;10.768;2023-09-19T00:48:11;1.20;;;0.70;;
19985;SDS011;10154;52.474;10.768;2023-09-19T00:50:37;2.07;;;0.80;;
19985;SDS011;10154;52.474;10.768;2023-09-19T00:53:06;1.53;;;0.77;;
19985;SDS011;10154;52.474;10.768;2023-09-19T00:55:33;2.07;;;0.70;;
19985;SDS011;10154;52.474;10.768;2023-09-19T00:57:59;2.63;;;0.90;;
19985;SDS011;10154;52.474;10.768;2023-09-19T01:00:25;1.70;;;0.80;;
19985;SDS011;10154;52.474;10.768;2023-09-19T01:02:50;2.33;;;0.87;;
19985;SDS011;10154;52.474;10.768;2023-09-19T01:05:15;2.87;;;0.70;;
19985;SDS011;10154;52.474;10.768;2023-09-19T01:07:41;3.10;;;0.87;;
19985;SDS011;10154;52.474;10.768;2023-09-19T01:10:11;2.63;;;0.80;;
19985;SDS011;10154;52.474;10.768;2023-09-19T01:18:16;1.33;;;0.90;;
19985;SDS011;10154;52.474;10.768;2023-09-19T01:26:35;2.37;;;1.00;;
19985;SDS011;10154;52.474;10.768;2023-09-19T01:29:47;3.70;;;1.20;;
19985;SDS011;10154;52.474;10.768;2023-09-19T01:32:16;2.40;;;1.13;;
19985;SDS011;10154;52.474;10.768;2023-09-19T01:34:46;1.47;;;1.00;;
19985;SDS011;10154;52.474;10.768;2023-09-19T01:37:18;3.27;;;1.00;;
19985;SDS011;10154;52.474;10.768;2023-09-19T01:39:48;3.70;;;1.07;;
19985;SDS011;10154;52.474;10.768;2023-09-19T01:45:17;2.17;;;1.10;;
19985;SDS011;10154;52.474;10.768;2023-09-19T01:47:52;2.33;;;1.20;;
19985;SDS011;10154;52.474;10.768;2023-09-19T01:50:30;1.90;;;1.30;;
19985;SDS011;10154;52.474;10.768;2023-09-19T01:53:10;5.07;;;1.47;;
19985;SDS011;10154;52.474;10.768;2023-09-19T01:55:44;5.83;;;1.70;;
19985;SDS011;10154;52.474;10.768;2023-09-19T01:58:16;6.73;;;2.33;;
19985;SDS011;10154;52.474;10.768;2023-09-19T02:00:46;2.67;;;1.60;;
19985;SDS011;10154;52.474;10.768;2023-09-19T02:03:17;3.57;;;1.83;;
19985;SDS011;10154;52.474;10.768;2023-09-19T02:05:48;3.03;;;1.77;;
19985;SDS011;10154;52.474;10.768;2023-09-19T02:08:16;6.23;;;2.00;;
19985;SDS011;10154;52.474;10.768;2023-09-19T02:10:43;2.97;;;1.80;;
19985;SDS011;10154;52.474;10.768;2023-09-19T02:13:13;6.97;;;1.90;;
19985;SDS011;10154;52.474;10.768;2023-09-19T02:15:42;3.93;;;1.70;;
19985;SDS011;10154;52.474;10.768;2023-09-19T02:18:09;4.53;;;2.10;;
19985;SDS011;10154;52.474;10.768;2023-09-19T02:20:35;5.80;;;2.27;;
19985;SDS011;10154;52.474;10.768;2023-09-19T02:23:00;4.27;;;2.17;;
19985;SDS011;10154;52.474;10.768;2023-09-19T02:25:27;3.00;;;2.10;;
19985;SDS011;10154;52.474;10.768;2023-09-19T02:27:53;3.80;;;2.07;;
19985;SDS011;10154;52.474;10.768;2023-09-19T02:30:19;5.27;;;2.17;;
19985;SDS011;10154;52.474;10.768;2023-09-19T02:32:46;3.17;;;2.40;;
19985;SDS011;10154;52.474;10.768;2023-09-19T02:35:11;3.90;;;2.40;;
19985;SDS011;10154;52.474;10.768;2023-09-19T02:37:37;6.97;;;2.40;;
19985;SDS011;10154;52.474;10.768;2023-09-19T02:40:03;6.70;;;2.30;;
19985;SDS011;10154;52.474;10.768;2023-09-19T02:42:42;3.10;;;2.20;;
19985;SDS011;10154;52.474;10.768;2023-09-19T02:45:07;6.97;;;2.50;;
19985;SDS011;10154;52.474;10.768;2023-09-19T02:47:34;4.93;;;2.40;;
19985;SDS011;10154;52.474;10.768;2023-09-19T02:50:00;4.87;;;2.23;;
19985;SDS011;10154;52.474;10.768;2023-09-19T02:52:25;14.53;;;2.87;;
19985;SDS011;10154;52.474;10.768;2023-09-19T02:54:50;5.53;;;2.30;;
19985;SDS011;10154;52.474;10.768;2023-09-19T02:57:16;4.80;;;2.17;;
19985;SDS011;10154;52.474;10.768;2023-09-19T02:59:42;5.53;;;2.20;;
19985;SDS011;10154;52.474;10.768;2023-09-19T03:02:09;2.87;;;1.90;;
19985;SDS011;10154;52.474;10.768;2023-09-19T03:04:34;5.03;;;2.20;;
19985;SDS011;10154;52.474;10.768;2023-09-19T03:07:00;4.53;;;2.07;;
19985;SDS011;10154;52.474;10.768;2023-09-19T03:09:26;5.63;;;2.23;;
19985;SDS011;10154;52.474;10.768;2023-09-19T03:11:51;4.27;;;2.10;;
19985;SDS011;10154;52.474;10.768;2023-09-19T03:14:17;8.80;;;2.10;;
19985;SDS011;10154;52.474;10.768;2023-09-19T03:16:45;2.90;;;1.70;;
19985;SDS011;10154;52.474;10.768;2023-09-19T03:19:10;3.23;;;1.70;;
19985;SDS011;10154;52.474;10.768;2023-09-19T03:21:37;4.70;;;1.90;;
19985;SDS011;10154;52.474;10.768;2023-09-19T03:24:03;4.80;;;2.10;;
19985;SDS011;10154;52.474;10.768;2023-09-19T03:26:29;6.07;;;2.13;;
19985;SDS011;10154;52.474;10.768;2023-09-19T03:28:54;3.77;;;2.10;;
19985;SDS011;10154;52.474;10.768;2023-09-19T03:31:20;4.60;;;2.00;;
19985;SDS011;10154;52.474;10.768;2023-09-19T03:33:45;4.70;;;2.37;;
19985;SDS011;10154;52.474;10.768;2023-09-19T03:36:11;6.53;;;2.43;;
19985;SDS011;10154;52.474;10.768;2023-09-19T03:38:38;4.40;;;2.13;;
19985;SDS011;10154;52.474;10.768;2023-09-19T03:41:03;3.80;;;2.20;;
19985;SDS011;10154;52.474;10.768;2023-09-19T03:43:29;4.30;;;2.20;;
19985;SDS011;10154;52.474;10.768;2023-09-19T03:45:54;7.17;;;2.27;;
19985;SDS011;10154;52.474;10.768;2023-09-19T03:48:20;7.63;;;2.40;;
19985;SDS011;10154;52.474;10.768;2023-09-19T03:50:46;7.30;;;2.87;;
19985;SDS011;10154;52.474;10.768;2023-09-19T03:53:12;6.70;;;2.60;;
19985;SDS011;10154;52.474;10.768;2023-09-19T03:55:38;7.00;;;2.90;;
19985;SDS011;10154;52.474;10.768;2023-09-19T03:58:04;5.80;;;3.10;;
19985;SDS011;10154;52.474;10.768;2023-09-19T04:00:30;10.67;;;3.33;;
19985;SDS011;10154;52.474;10.768;2023-09-19T04:02:56;9.03;;;2.80;;
19985;SDS011;10154;52.474;10.768;2023-09-19T04:05:22;6.20;;;3.13;;
19985;SDS011;10154;52.474;10.768;2023-09-19T04:07:47;9.57;;;2.97;;
19985;SDS011;10154;52.474;10.768;2023-09-19T04:10:13;8.37;;;3.30;;
19985;SDS011;10154;52.474;10.768;2023-09-19T04:12:39;5.77;;;3.20;;
19985;SDS011;10154;52.474;10.768;2023-09-19T04:15:05;5.80;;;2.93;;
19985;SDS011;10154;52.474;10.768;2023-09-19T04:17:31;9.87;;;3.20;;
19985;SDS011;10154;52.474;10.768;2023-09-19T04:19:59;6.37;;;3.00;;
19985;SDS011;10154;52.474;10.768;2023-09-19T04:22:25;8.13;;;2.80;;
19985;SDS011;10154;52.474;10.768;2023-09-19T04:24:50;6.30;;;3.13;;
19985;SDS011;10154;52.474;10.768;2023-09-19T04:27:16;7.43;;;2.80;;
19985;SDS011;10154;52.474;10.768;2023-09-19T04:29:41;7.17;;;3.10;;
19985;SDS011;10154;52.474;10.768;2023-09-19T04:32:07;8.97;;;3.10;;
19985;SDS011;10154;52.474;10.768;2023-09-19T04:34:36;8.03;;;3.10;;
19985;SDS011;10154;52.474;10.768;2023-09-19T04:37:03;8.20;;;3.17;;
19985;SDS011;10154;52.474;10.768;2023-09-19T04:39:28;9.33;;;3.53;;
19985;SDS011;10154;52.474;10.768;2023-09-19T04:41:54;11.33;;;4.10;;
19985;SDS011;10154;52.474;10.768;2023-09-19T04:44:19;7.80;;;3.90;;
19985;SDS011;10154;52.474;10.768;2023-09-19T04:46:45;9.97;;;4.00;;
19985;SDS011;10154;52.474;10.768;2023-09-19T04:49:13;10.93;;;4.10;;
19985;SDS011;10154;52.474;10.768;2023-09-19T04:51:39;13.37;;;3.83;;
19985;SDS011;10154;52.474;10.768;2023-09-19T04:54:05;14.17;;;4.00;;
19985;SDS011;10154;52.474;10.768;2023-09-19T04:56:30;9.07;;;4.00;;
19985;SDS011;10154;52.474;10.768;2023-09-19T04:58:57;7.87;;;3.97;;
19985;SDS011;10154;52.474;10.768;2023-09-19T05:01:23;14.40;;;3.93;;
19985;SDS011;10154;52.474;10.768;2023-09-19T05:03:49;11.90;;;3.50;;
19985;SDS011;10154;52.474;10.768;2023-09-19T05:06:20;9.60;;;3.80;;
19985;SDS011;10154;52.474;10.768;2023-09-19T05:08:46;11.50;;;3.70;;
19985;SDS011;10154;52.474;10.768;2023-09-19T05:11:16;7.67;;;3.80;;
19985;SDS011;10154;52.474;10.768;2023-09-19T05:13:42;10.37;;;3.93;;
19985;SDS011;10154;52.474;10.768;2023-09-19T05:16:08;11.50;;;4.23;;
19985;SDS011;10154;52.474;10.768;2023-09-19T05:18:35;8.70;;;3.93;;
19985;SDS011;10154;52.474;10.768;2023-09-19T05:21:02;11.20;;;4.13;;
19985;SDS011;10154;52.474;10.768;2023-09-19T05:23:27;9.53;;;4.40;;
19985;SDS011;10154;52.474;10.768;2023-09-19T05:25:53;7.03;;;4.00;;
19985;SDS011;10154;52.474;10.768;2023-09-19T05:28:19;15.77;;;4.33;;
19985;SDS011;10154;52.474;10.768;2023-09-19T05:30:45;8.60;;;4.27;;
19985;SDS011;10154;52.474;10.768;2023-09-19T05:33:11;11.60;;;4.60;;
19985;SDS011;10154;52.474;10.768;2023-09-19T05:35:36;11.70;;;4.70;;
19985;SDS011;10154;52.474;10.768;2023-09-19T05:38:04;7.43;;;4.17;;
19985;SDS011;10154;52.474;10.768;2023-09-19T05:40:33;9.93;;;4.50;;
19985;SDS011;10154;52.474;10.768;2023-09-19T05:42:59;8.77;;;4.17;;
19985;SDS011;10154;52.474;10.768;2023-09-19T05:45:25;10.53;;;5.03;;
19985;SDS011;10154;52.474;10.768;2023-09-19T05:47:52;14.70;;;5.17;;
19985;SDS011;10154;52.474;10.768;2023-09-19T05:50:21;9.37;;;4.43;;
19985;SDS011;10154;52.474;10.768;2023-09-19T05:52:52;12.33;;;5.00;;
19985;SDS011;10154;52.474;10.768;2023-09-19T05:55:18;12.43;;;5.03;;
19985;SDS011;10154;52.474;10.768;2023-09-19T05:57:49;10.93;;;4.87;;
19985;SDS011;10154;52.474;10.768;2023-09-19T06:00:15;11.13;;;5.17;;
19985;SDS011;10154;52.474;10.768;2023-09-19T06:02:42;7.13;;;4.53;;
19985;SDS011;10154;52.474;10.768;2023-09-19T06:05:10;10.67;;;5.20;;
19985;SDS011;10154;52.474;10.768;2023-09-19T06:07:35;12.67;;;4.70;;
19985;SDS011;10154;52.474;10.768;2023-09-19T06:10:04;12.87;;;5.17;;
19985;SDS011;10154;52.474;10.768;2023-09-19T06:12:33;13.80;;;5.50;;
19985;SDS011;10154;52.474;10.768;2023-09-19T06:15:03;16.47;;;5.23;;
19985;SDS011;10154;52.474;10.768;2023-09-19T06:17:30;10.90;;;4.73;;
19985;SDS011;10154;52.474;10.768;2023-09-19T06:19:56;12.80;;;5.17;;
19985;SDS011;10154;52.474;10.768;2023-09-19T06:22:21;17.37;;;5.87;;
19985;SDS011;10154;52.474;10.768;2023-09-19T06:24:47;9.47;;;4.80;;
19985;SDS011;10154;52.474;10.768;2023-09-19T06:27:13;12.10;;;5.07;;
19985;SDS011;10154;52.474;10.768;2023-09-19T06:29:39;11.60;;;5.13;;
19985;SDS011;10154;52.474;10.768;2023-09-19T06:32:10;9.83;;;4.20;;
19985;SDS011;10154;52.474;10.768;2023-09-19T06:34:36;9.30;;;4.50;;
19985;SDS011;10154;52.474;10.768;2023-09-19T06:37:03;9.03;;;4.20;;
19985;SDS011;10154;52.474;10.768;2023-09-19T06:39:29;8.27;;;3.97;;
19985;SDS011;10154;52.474;10.768;2023-09-19T06:41:56;10.47;;;4.60;;
19985;SDS011;10154;52.474;10.768;2023-09-19T06:44:21;7.13;;;4.10;;
19985;SDS011;10154;52.474;10.768;2023-09-19T06:46:49;7.93;;;3.93;;
19985;SDS011;10154;52.474;10.768;2023-09-19T06:49:16;9.20;;;4.13;;
19985;SDS011;10154;52.474;10.768;2023-09-19T06:51:44;12.00;;;4.60;;
19985;SDS011;10154;52.474;10.768;2023-09-19T06:54:10;9.63;;;3.57;;
19985;SDS011;10154;52.474;10.768;2023-09-19T06:56:35;14.60;;;4.10;;
19985;SDS011;10154;52.474;10.768;2023-09-19T06:59:00;8.10;;;3.83;;
19985;SDS011;10154;52.474;10.768;2023-09-19T07:01:27;11.10;;;4.57;;
19985;SDS011;10154;52.474;10.768;2023-09-19T07:03:53;9.80;;;3.90;;
19985;SDS011;10154;52.474;10.768;2023-09-19T07:06:18;13.97;;;4.23;;
19985;SDS011;10154;52.474;10.768;2023-09-19T07:08:44;13.27;;;4.93;;
19985;SDS011;10154;52.474;10.768;2023-09-19T07:11:10;13.97;;;3.97;;
19985;SDS011;10154;52.474;10.768;2023-09-19T07:13:37;8.20;;;3.50;;
19985;SDS011;10154;52.474;10.768;2023-09-19T07:16:03;18.77;;;4.20;;
19985;SDS011;10154;52.474;10.768;2023-09-19T07:18:29;13.07;;;4.03;;
19985;SDS011;10154;52.474;10.768;2023-09-19T07:20:56;12.30;;;3.73;;
19985;SDS011;10154;52.474;10.768;2023-09-19T07:23:26;12.20;;;3.80;;
19985;SDS011;10154;52.474;10.768;2023-09-19T07:25:51;8.77;;;3.37;;
19985;SDS011;10154;52.474;10.768;2023-09-19T07:28:17;8.50;;;3.40;;
19985;SDS011;10154;52.474;10.768;2023-09-19T07:30:42;10.43;;;3.80;;
19985;SDS011;10154;52.474;10.768;2023-09-19T07:33:08;12.43;;;3.13;;
19985;SDS011;10154;52.474;10.768;2023-09-19T07:35:36;10.70;;;3.80;;
19985;SDS011;10154;52.474;10.768;2023-09-19T07:38:04;10.70;;;3.17;;
19985;SDS011;10154;52.474;10.768;2023-09-19T07:40:29;12.07;;;3.37;;
19985;SDS011;10154;52.474;10.768;2023-09-19T07:42:55;8.37;;;2.97;;
19985;SDS011;10154;52.474;10.768;2023-09-19T07:45:21;17.03;;;3.27;;
19985;SDS011;10154;52.474;10.768;2023-09-19T07:47:46;10.40;;;2.83;;
19985;SDS011;10154;52.474;10.768;2023-09-19T07:50:13;12.30;;;3.30;;
19985;SDS011;10154;52.474;10.768;2023-09-19T07:52:38;12.20;;;2.97;;
19985;SDS011;10154;52.474;10.768;2023-09-19T07:55:08;9.40;;;2.80;;
19985;SDS011;10154;52.474;10.768;2023-09-19T07:57:40;11.37;;;3.00;;
19985;SDS011;10154;52.474;10.768;2023-09-19T08:00:07;12.27;;;2.97;;
19985;SDS011;10154;52.474;10.768;2023-09-19T08:02:35;13.43;;;2.80;;
19985;SDS011;10154;52.474;10.768;2023-09-19T08:05:03;13.03;;;2.70;;
19985;SDS011;10154;52.474;10.768;2023-09-19T08:07:31;10.50;;;2.85;;
19985;SDS011;10154;52.474;10.768;2023-09-19T08:09:57;10.18;;;2.80;;
19985;SDS011;10154;52.474;10.768;2023-09-19T08:12:23;11.45;;;2.70;;
19985;SDS011;10154;52.474;10.768;2023-09-19T08:14:48;10.25;;;2.88;;
19985;SDS011;10154;52.474;10.768;2023-09-19T08:17:15;14.05;;;2.60;;
19985;SDS011;10154;52.474;10.768;2023-09-19T08:19:40;9.60;;;2.30;;
19985;SDS011;10154;52.474;10.768;2023-09-19T08:22:07;10.45;;;2.60;;
19985;SDS011;10154;52.474;10.768;2023-09-19T08:24:35;13.35;;;2.95;;
19985;SDS011;10154;52.474;10.768;2023-09-19T08:27:00;12.23;;;2.28;;
19985;SDS011;10154;52.474;10.768;2023-09-19T08:29:29;8.35;;;2.00;;
19985;SDS011;10154;52.474;10.768;2023-09-19T08:31:55;7.45;;;2.05;;
19985;SDS011;10154;52.474;10.768;2023-09-19T08:34:21;12.35;;;2.25;;
19985;SDS011;10154;52.474;10.768;2023-09-19T08:36:48;9.75;;;2.05;;
19985;SDS011;10154;52.474;10.768;2023-09-19T08:39:15;14.70;;;1.92;;
19985;SDS011;10154;52.474;10.768;2023-09-19T08:41:40;8.75;;;1.90;;
19985;SDS011;10154;52.474;10.768;2023-09-19T08:44:05;11.40;;;2.22;;
19985;SDS011;10154;52.474;10.768;2023-09-19T08:46:31;7.22;;;1.70;;
19985;SDS011;10154;52.474;10.768;2023-09-19T08:49:03;8.55;;;2.03;;
19985;SDS011;10154;52.474;10.768;2023-09-19T08:51:32;7.60;;;1.92;;
19985;SDS011;10154;52.474;10.768;2023-09-19T08:54:07;9.02;;;2.10;;
19985;SDS011;10154;52.474;10.768;2023-09-19T08:56:33;7.03;;;1.92;;
19985;SDS011;10154;52.474;10.768;2023-09-19T08:59:05;9.15;;;1.70;;
19985;SDS011;10154;52.474;10.768;2023-09-19T09:01:36;9.57;;;1.67;;
19985;SDS011;10154;52.474;10.768;2023-09-19T09:04:02;6.65;;;1.80;;
19985;SDS011;10154;52.474;10.768;2023-09-19T09:06:29;9.98;;;2.00;;
19985;SDS011;10154;52.474;10.768;2023-09-19T09:08:54;10.30;;;1.85;;
19985;SDS011;10154;52.474;10.768;2023-09-19T09:11:21;6.90;;;1.70;;
19985;SDS011;10154;52.474;10.768;2023-09-19T09:13:49;8.32;;;1.80;;
19985;SDS011;10154;52.474;10.768;2023-09-19T09:16:15;6.18;;;2.03;;
19985;SDS011;10154;52.474;10.768;2023-09-19T09:18:43;10.43;;;1.83;;
19985;SDS011;10154;52.474;10.768;2023-09-19T09:21:10;10.75;;;1.90;;
19985;SDS011;10154;52.474;10.768;2023-09-19T09:23:36;5.22;;;1.52;;
19985;SDS011;10154;52.474;10.768;2023-09-19T09:26:01;7.45;;;1.83;;
19985;SDS011;10154;52.474;10.768;2023-09-19T09:28:31;8.23;;;1.50;;
19985;SDS011;10154;52.474;10.768;2023-09-19T09:30:58;8.85;;;1.60;;
19985;SDS011;10154;52.474;10.768;2023-09-19T09:33:24;8.60;;;1.70;;
19985;SDS011;10154;52.474;10.768;2023-09-19T09:38:22;10.60;;;1.58;;
19985;SDS011;10154;52.474;10.768;2023-09-19T09:40:53;7.95;;;1.80;;
19985;SDS011;10154;52.474;10.768;2023-09-19T09:43:28;9.80;;;1.80;;
19985;SDS011;10154;52.474;10.768;2023-09-19T09:46:11;7.65;;;1.98;;
19985;SDS011;10154;52.474;10.768;2023-09-19T09:49:04;12.93;;;1.80;;
19985;SDS011;10154;52.474;10.768;2023-09-19T09:51:58;5.80;;;1.40;;
19985;SDS011;10154;52.474;10.768;2023-09-19T09:54:32;5.18;;;1.40;;
19985;SDS011;10154;52.474;10.768;2023-09-19T09:57:07;7.93;;;1.48;;
19985;SDS011;10154;52.474;10.768;2023-09-19T09:59:49;8.20;;;1.75;;
19985;SDS011;10154;52.474;10.768;2023-09-19T10:02:31;6.13;;;1.33;;
19985;SDS011;10154;52.474;10.768;2023-09-19T10:05:11;6.65;;;1.80;;
19985;SDS011;10154;52.474;10.768;2023-09-19T10:07:49;8.43;;;1.88;;
19985;SDS011;10154;52.474;10.768;2023-09-19T10:10:32;3.88;;;1.42;;
19985;SDS011;10154;52.474;10.768;2023-09-19T10:13:05;5.97;;;1.45;;
19985;SDS011;10154;52.474;10.768;2023-09-19T10:15:32;7.80;;;1.38;;
19985;SDS011;10154;52.474;10.768;2023-09-19T10:17:59;8.95;;;2.08;;
19985;SDS011;10154;52.474;10.768;2023-09-19T10:20:26;7.82;;;1.65;;
19985;SDS011;10154;52.474;10.768;2023-09-19T10:23:05;8.90;;;1.77;;
19985;SDS011;10154;52.474;10.768;2023-09-19T10:25:39;4.95;;;1.40;;
19985;SDS011;10154;52.474;10.768;2023-09-19T10:28:06;9.35;;;1.58;;
19985;SDS011;10154;52.474;10.768;2023-09-19T10:30:45;10.52;;;1.88;;
19985;SDS011;10154;52.474;10.768;2023-09-19T10:33:22;6.10;;;1.52;;
19985;SDS011;10154;52.474;10.768;2023-09-19T10:35:51;6.13;;;1.65;;
19985;SDS011;10154;52.474;10.768;2023-09-19T10:38:18;9.10;;;1.70;;
19985;SDS011;10154;52.474;10.768;2023-09-19T10:40:53;7.68;;;1.73;;
19985;SDS011;10154;52.474;10.768;2023-09-19T10:43:20;10.07;;;2.03;;
19985;SDS011;10154;52.474;10.768;2023-09-19T10:45:47;8.80;;;1.48;;
19985;SDS011;10154;52.474;10.768;2023-09-19T10:48:20;5.97;;;1.58;;
19985;SDS011;10154;52.474;10.768;2023-09-19T10:56:10;6.85;;;1.52;;
19985;SDS011;10154;52.474;10.768;2023-09-19T10:58:42;6.57;;;1.70;;
19985;SDS011;10154;52.474;10.768;2023-09-19T11:01:09;6.22;;;1.83;;
19985;SDS011;10154;52.474;10.768;2023-09-19T11:03:37;6.95;;;1.50;;
19985;SDS011;10154;52.474;10.768;2023-09-19T11:06:12;5.65;;;1.50;;
19985;SDS011;10154;52.474;10.768;2023-09-19T11:09:03;6.07;;;1.60;;
19985;SDS011;10154;52.474;10.768;2023-09-19T11:30:49;8.00;;;1.92;;
19985;SDS011;10154;52.474;10.768;2023-09-19T11:43:51;5.63;;;1.70;;
19985;SDS011;10154;52.474;10.768;2023-09-19T11:46:28;5.60;;;1.63;;
19985;SDS011;10154;52.474;10.768;2023-09-19T11:49:15;8.60;;;1.90;;
19985;SDS011;10154;52.474;10.768;2023-09-19T11:51:45;8.15;;;1.95;;
19985;SDS011;10154;52.474;10.768;2023-09-19T11:54:12;10.77;;;1.70;;
19985;SDS011;10154;52.474;10.768;2023-09-19T11:56:43;9.82;;;1.63;;
19985;SDS011;10154;52.474;10.768;2023-09-19T11:59:09;9.05;;;1.90;;
19985;SDS011;10154;52.474;10.768;2023-09-19T12:01:34;6.18;;;1.65;;
19985;SDS011;10154;52.474;10.768;2023-09-19T12:04:05;5.97;;;1.70;;
19985;SDS011;10154;52.474;10.768;2023-09-19T12:06:33;7.47;;;1.73;;
19985;SDS011;10154;52.474;10.768;2023-09-19T12:08:59;12.35;;;1.77;;
19985;SDS011;10154;52.474;10.768;2023-09-19T12:11:28;8.55;;;1.73;;
19985;SDS011;10154;52.474;10.768;2023-09-19T12:14:05;6.95;;;1.60;;
19985;SDS011;10154;52.474;10.768;2023-09-19T12:16:31;7.05;;;1.85;;
19985;SDS011;10154;52.474;10.768;2023-09-19T12:18:58;6.65;;;1.80;;
19985;SDS011;10154;52.474;10.768;2023-09-19T12:21:43;7.72;;;1.88;;
19985;SDS011;10154;52.474;10.768;2023-09-19T12:24:12;9.50;;;1.88;;
19985;SDS011;10154;52.474;10.768;2023-09-19T12:26:47;10.60;;;2.25;;
19985;SDS011;10154;52.474;10.768;2023-09-19T12:31:52;10.35;;;1.90;;
19985;SDS011;10154;52.474;10.768;2023-09-19T12:34:29;6.32;;;2.00;;
19985;SDS011;10154;52.474;10.768;2023-09-19T12:37:05;9.38;;;2.15;;
19985;SDS011;10154;52.474;10.768;2023-09-19T12:39:40;7.32;;;1.85;;
19985;SDS011;10154;52.474;10.768;2023-09-19T12:42:16;8.88;;;1.92;;
19985;SDS011;10154;52.474;10.768;2023-09-19T12:44:43;10.27;;;1.90;;
19985;SDS011;10154;52.474;10.768;2023-09-19T12:47:19;8.63;;;1.85;;
19985;SDS011;10154;52.474;10.768;2023-09-19T12:52:54;6.10;;;2.00;;
19985;SDS011;10154;52.474;10.768;2023-09-19T12:55:22;10.55;;;1.85;;
19985;SDS011;10154;52.474;10.768;2023-09-19T13:00:38;6.60;;;2.00;;
19985;SDS011;10154;52.474;10.768;2023-09-19T13:05:50;7.18;;;1.90;;
19985;SDS011;10154;52.474;10.768;2023-09-19T13:08:23;6.43;;;1.95;;
19985;SDS011;10154;52.474;10.768;2023-09-19T13:11:10;6.07;;;1.95;;
19985;SDS011;10154;52.474;10.768;2023-09-19T13:13:51;7.43;;;2.08;;
19985;SDS011;10154;52.474;10.768;2023-09-19T13:25:14;7.47;;;1.85;;
19985;SDS011;10154;52.474;10.768;2023-09-19T13:27:43;7.57;;;1.98;;
19985;SDS011;10154;52.474;10.768;2023-09-19T13:30:09;9.73;;;1.90;;
19985;SDS011;10154;52.474;10.768;2023-09-19T13:32:36;6.13;;;1.80;;
19985;SDS011;10154;52.474;10.768;2023-09-19T13:35:02;7.93;;;2.00;;
19985;SDS011;10154;52.474;10.768;2023-09-19T13:37:30;6.80;;;2.10;;
19985;SDS011;10154;52.474;10.768;2023-09-19T13:39:55;6.40;;;1.85;;
19985;SDS011;10154;52.474;10.768;2023-09-19T13:42:22;5.43;;;1.52;;
19985;SDS011;10154;52.474;10.768;2023-09-19T13:44:50;7.40;;;1.70;;
19985;SDS011;10154;52.474;10.768;2023-09-19T13:47:16;9.85;;;1.98;;
19985;SDS011;10154;52.474;10.768;2023-09-19T13:49:41;5.45;;;1.80;;
19985;SDS011;10154;52.474;10.768;2023-09-19T13:52:08;8.85;;;1.92;;
19985;SDS011;10154;52.474;10.768;2023-09-19T13:54:33;9.40;;;1.88;;
19985;SDS011;10154;52.474;10.768;2023-09-19T13:56:59;4.68;;;1.63;;
19985;SDS011;10154;52.474;10.768;2023-09-19T13:59:25;6.63;;;1.70;;
19985;SDS011;10154;52.474;10.768;2023-09-19T14:01:53;5.63;;;1.63;;
19985;SDS011;10154;52.474;10.768;2023-09-19T14:04:19;6.82;;;1.90;;
19985;SDS011;10154;52.474;10.768;2023-09-19T14:06:46;5.13;;;1.70;;
19985;SDS011;10154;52.474;10.768;2023-09-19T14:09:11;6.82;;;2.05;;
19985;SDS011;10154;52.474;10.768;2023-09-19T14:11:38;9.90;;;1.98;;
19985;SDS011;10154;52.474;10.768;2023-09-19T14:14:04;6.43;;;1.60;;
19985;SDS011;10154;52.474;10.768;2023-09-19T14:16:29;6.88;;;1.80;;
19985;SDS011;10154;52.474;10.768;2023-09-19T14:18:56;6.85;;;2.05;;
19985;SDS011;10154;52.474;10.768;2023-09-19T14:21:21;7.82;;;1.70;;
19985;SDS011;10154;52.474;10.768;2023-09-19T14:23:48;11.25;;;2.20;;
19985;SDS011;10154;52.474;10.768;2023-09-19T14:26:14;8.75;;;1.85;;
19985;SDS011;10154;52.474;10.768;2023-09-19T14:28:41;7.55;;;1.98;;
19985;SDS011;10154;52.474;10.768;2023-09-19T14:31:09;7.47;;;1.80;;
19985;SDS011;10154;52.474;10.768;2023-09-19T14:33:36;7.97;;;2.25;;
19985;SDS011;10154;52.474;10.768;2023-09-19T14:36:04;8.98;;;1.98;;
19985;SDS011;10154;52.474;10.768;2023-09-19T14:38:34;7.60;;;2.25;;
19985;SDS011;10154;52.474;10.768;2023-09-19T14:41:01;5.72;;;1.90;;
19985;SDS011;10154;52.474;10.768;2023-09-19T14:43:26;3.58;;;1.67;;
19985;SDS011;10154;52.474;10.768;2023-09-19T14:45:54;5.63;;;1.52;;
19985;SDS011;10154;52.474;10.768;2023-09-19T14:48:19;10.57;;;2.05;;
19985;SDS011;10154;52.474;10.768;2023-09-19T14:50:44;6.63;;;2.10;;
19985;SDS011;10154;52.474;10.768;2023-09-19T14:53:10;5.38;;;2.05;;
19985;SDS011;10154;52.474;10.768;2023-09-19T14:55:37;5.13;;;1.85;;
19985;SDS011;10154;52.474;10.768;2023-09-19T14:58:06;6.90;;;1.95;;
19985;SDS011;10154;52.474;10.768;2023-09-19T15:00:32;8.40;;;1.80;;
19985;SDS011;10154;52.474;10.768;2023-09-19T15:03:00;8.63;;;1.50;;
19985;SDS011;10154;52.474;10.768;2023-09-19T15:05:26;7.75;;;1.85;;
19985;SDS011;10154;52.474;10.768;2023-09-19T15:07:54;11.98;;;2.20;;
19985;SDS011;10154;52.474;10.768;2023-09-19T15:10:20;5.45;;;1.77;;
19985;SDS011;10154;52.474;10.768;2023-09-19T15:12:47;5.63;;;1.80;;
19985;SDS011;10154;52.474;10.768;2023-09-19T15:15:13;7.30;;;1.80;;
19985;SDS011;10154;52.474;10.768;2023-09-19T15:17:38;10.73;;;2.00;;
19985;SDS011;10154;52.474;10.768;2023-09-19T15:20:04;7.53;;;1.70;;
19985;SDS011;10154;52.474;10.768;2023-09-19T15:22:31;6.85;;;2.10;;
19985;SDS011;10154;52.474;10.768;2023-09-19T15:24:59;7.55;;;1.92;;
19985;SDS011;10154;52.474;10.768;2023-09-19T15:27:26;11.48;;;2.00;;
19985;SDS011;10154;52.474;10.768;2023-09-19T15:29:52;6.18;;;2.00;;
19985;SDS011;10154;52.474;10.768;2023-09-19T15:32:18;9.05;;;2.10;;
19985;SDS011;10154;52.474;10.768;2023-09-19T15:34:43;7.43;;;2.28;;
19985;SDS011;10154;52.474;10.768;2023-09-19T15:37:08;5.85;;;1.67;;
19985;SDS011;10154;52.474;10.768;2023-09-19T15:39:34;8.32;;;2.00;;
19985;SDS011;10154;52.474;10.768;2023-09-19T15:41:59;7.53;;;2.05;;
19985;SDS011;10154;52.474;10.768;2023-09-19T15:44:25;6.47;;;1.98;;
19985;SDS011;10154;52.474;10.768;2023-09-19T15:46:52;9.63;;;2.22;;
19985;SDS011;10154;52.474;10.768;2023-09-19T15:49:17;6.82;;;1.75;;